VLG9HR LFPO-LEBL
Flight info
| Callsign | VLG9HR |
|---|---|
| Flight time | 1h 24m |
| Altitude | 35000 |
| Route | ERIXU DCT ETAMO DCT VALKU DCT ATSUP DCT MINSO DCT DEGOL DCT PPG DCT ALBER |
| Aircraft | A321/M-SDE3FGHIRWY/LB1 |
Departure
| Time | 2026-05-05 22:19 |
|---|---|
| Airport | Paris-Orly Airport (LFPO) |
Arrival
| Time | 2026-05-05 23:43 |
|---|---|
| Airport | Josep Tarradellas Barcelona-El Prat Airport (LEBL) |
| Time | Latitude | Longitude | Altitude | Speed | Heading |
|---|---|---|---|---|---|
| 2026-05-05 21:50 | 48.72716 | 2.35393 | 294 ft | 0 kts | 293° |
| 2026-05-05 22:13 | 48.72722 | 2.35384 | 294 ft | 1 kts | 307° |
| 2026-05-05 22:13 | 48.72735 | 2.35387 | 289 ft | 3 kts | 9° |
| 2026-05-05 22:14 | 48.72738 | 2.35441 | 289 ft | 8 kts | 109° |
| 2026-05-05 22:14 | 48.72713 | 2.35485 | 294 ft | 3 kts | 149° |
| 2026-05-05 22:14 | 48.72699 | 2.35494 | 290 ft | 0 kts | 157° |
| 2026-05-05 22:15 | 48.72697 | 2.35495 | 290 ft | 1 kts | 157° |
| 2026-05-05 22:15 | 48.72687 | 2.35502 | 290 ft | 1 kts | 158° |
| 2026-05-05 22:15 | 48.72677 | 2.35507 | 293 ft | 3 kts | 162° |
| 2026-05-05 22:15 | 48.72662 | 2.35513 | 290 ft | 1 kts | 163° |
| 2026-05-05 22:16 | 48.72630 | 2.35528 | 291 ft | 11 kts | 163° |
| 2026-05-05 22:16 | 48.72511 | 2.35576 | 289 ft | 23 kts | 165° |
| 2026-05-05 22:16 | 48.72376 | 2.35632 | 291 ft | 17 kts | 165° |
| 2026-05-05 22:16 | 48.72310 | 2.35627 | 289 ft | 8 kts | 197° |
| 2026-05-05 22:17 | 48.72267 | 2.35605 | 290 ft | 6 kts | 194° |
| 2026-05-05 22:17 | 48.72207 | 2.35611 | 291 ft | 9 kts | 168° |
| 2026-05-05 22:17 | 48.72154 | 2.35630 | 289 ft | 7 kts | 165° |
| 2026-05-05 22:17 | 48.72115 | 2.35650 | 289 ft | 7 kts | 159° |
| 2026-05-05 22:18 | 48.72056 | 2.35701 | 293 ft | 12 kts | 140° |
| 2026-05-05 22:18 | 48.72009 | 2.35805 | 294 ft | 11 kts | 118° |
| 2026-05-05 22:18 | 48.71980 | 2.35892 | 296 ft | 8 kts | 117° |
| 2026-05-05 22:18 | 48.71965 | 2.35987 | 291 ft | 16 kts | 82° |
| 2026-05-05 22:19 | 48.72052 | 2.36447 | 293 ft | 79 kts | 75° |
| 2026-05-05 22:19 | 48.72256 | 2.37561 | 288 ft | 138 kts | 73° |
| 2026-05-05 22:19 | 48.72557 | 2.39198 | 352 ft | 179 kts | 73° |
| 2026-05-05 22:19 | 48.72885 | 2.40977 | 1058 ft | 176 kts | 72° |
| 2026-05-05 22:20 | 48.73106 | 2.42191 | 1540 ft | 178 kts | 72° |
| 2026-05-05 22:20 | 48.73451 | 2.44077 | 1907 ft | 195 kts | 70° |
| 2026-05-05 22:20 | 48.73842 | 2.46164 | 2102 ft | 217 kts | 71° |
| 2026-05-05 22:20 | 48.74076 | 2.48537 | 2386 ft | 239 kts | 85° |
| 2026-05-05 22:21 | 48.74144 | 2.51151 | 2847 ft | 253 kts | 84° |
| 2026-05-05 22:21 | 48.74233 | 2.53798 | 3553 ft | 258 kts | 85° |
| 2026-05-05 22:21 | 48.74200 | 2.56527 | 4259 ft | 264 kts | 102° |
| 2026-05-05 22:21 | 48.73284 | 2.58938 | 4924 ft | 272 kts | 138° |
| 2026-05-05 22:22 | 48.71627 | 2.60331 | 5662 ft | 275 kts | 160° |
| 2026-05-05 22:22 | 48.69778 | 2.61133 | 6397 ft | 278 kts | 167° |
| 2026-05-05 22:22 | 48.67877 | 2.61732 | 7113 ft | 280 kts | 170° |
| 2026-05-05 22:22 | 48.65930 | 2.61811 | 7802 ft | 282 kts | 189° |
| 2026-05-05 22:23 | 48.64052 | 2.60975 | 8520 ft | 283 kts | 206° |
| 2026-05-05 22:23 | 48.62393 | 2.59387 | 9249 ft | 284 kts | 222° |
| 2026-05-05 22:23 | 48.61063 | 2.57184 | 9938 ft | 285 kts | 230° |
| 2026-05-05 22:23 | 48.59753 | 2.54815 | 10214 ft | 304 kts | 230° |
| 2026-05-05 22:24 | 48.58348 | 2.52268 | 10342 ft | 326 kts | 230° |
| 2026-05-05 22:24 | 48.56851 | 2.49554 | 10477 ft | 346 kts | 230° |
| 2026-05-05 22:24 | 48.55286 | 2.46712 | 10883 ft | 355 kts | 230° |
| 2026-05-05 22:24 | 48.53693 | 2.43831 | 11479 ft | 359 kts | 229° |
| 2026-05-05 22:25 | 48.51875 | 2.41227 | 12092 ft | 363 kts | 218° |
| 2026-05-05 22:25 | 48.49750 | 2.39154 | 12719 ft | 366 kts | 210° |
| 2026-05-05 22:25 | 48.47541 | 2.37211 | 13347 ft | 369 kts | 211° |
| 2026-05-05 22:25 | 48.45313 | 2.35245 | 13929 ft | 373 kts | 211° |
| 2026-05-05 22:26 | 48.43068 | 2.33264 | 14490 ft | 376 kts | 211° |
| 2026-05-05 22:26 | 48.40803 | 2.31266 | 15055 ft | 379 kts | 211° |
| 2026-05-05 22:26 | 48.38523 | 2.29256 | 15627 ft | 382 kts | 210° |
| 2026-05-05 22:26 | 48.36218 | 2.27229 | 16200 ft | 385 kts | 210° |
| 2026-05-05 22:27 | 48.33901 | 2.25191 | 16762 ft | 388 kts | 210° |
| 2026-05-05 22:27 | 48.31486 | 2.23348 | 17309 ft | 391 kts | 201° |
| 2026-05-05 22:27 | 48.28870 | 2.22208 | 17852 ft | 394 kts | 190° |
| 2026-05-05 22:27 | 48.26128 | 2.21862 | 18363 ft | 398 kts | 179° |
| 2026-05-05 22:28 | 48.23371 | 2.22314 | 18844 ft | 400 kts | 171° |
| 2026-05-05 22:28 | 48.20618 | 2.23007 | 19336 ft | 403 kts | 171° |
| 2026-05-05 22:28 | 48.17842 | 2.23691 | 19821 ft | 405 kts | 171° |
| 2026-05-05 22:28 | 48.15049 | 2.24366 | 20294 ft | 408 kts | 171° |
| 2026-05-05 22:29 | 48.12240 | 2.25040 | 20788 ft | 410 kts | 171° |
| 2026-05-05 22:29 | 48.09453 | 2.25708 | 21229 ft | 412 kts | 171° |
| 2026-05-05 22:29 | 48.06593 | 2.26096 | 21673 ft | 414 kts | 178° |
| 2026-05-05 22:29 | 48.03700 | 2.26272 | 22120 ft | 416 kts | 178° |
| 2026-05-05 22:30 | 48.00800 | 2.26451 | 22573 ft | 419 kts | 178° |
| 2026-05-05 22:30 | 47.97883 | 2.26634 | 23017 ft | 421 kts | 178° |
| 2026-05-05 22:30 | 47.94951 | 2.26819 | 23455 ft | 423 kts | 178° |
| 2026-05-05 22:30 | 47.92004 | 2.27007 | 23831 ft | 424 kts | 178° |
| 2026-05-05 22:31 | 47.89052 | 2.27199 | 24201 ft | 426 kts | 178° |
| 2026-05-05 22:31 | 47.86085 | 2.27393 | 24581 ft | 427 kts | 178° |
| 2026-05-05 22:31 | 47.83111 | 2.27590 | 24957 ft | 429 kts | 178° |
| 2026-05-05 22:31 | 47.80127 | 2.27788 | 25324 ft | 430 kts | 178° |
| 2026-05-05 22:32 | 47.77133 | 2.27979 | 25688 ft | 431 kts | 178° |
| 2026-05-05 22:32 | 47.74131 | 2.28165 | 26041 ft | 433 kts | 178° |
| 2026-05-05 22:32 | 47.71112 | 2.28347 | 26385 ft | 434 kts | 178° |
| 2026-05-05 22:32 | 47.68086 | 2.28529 | 26716 ft | 436 kts | 178° |
| 2026-05-05 22:33 | 47.65049 | 2.28714 | 27059 ft | 437 kts | 178° |
| 2026-05-05 22:33 | 47.62005 | 2.28905 | 27408 ft | 439 kts | 178° |
| 2026-05-05 22:33 | 47.58946 | 2.29100 | 27746 ft | 441 kts | 178° |
| 2026-05-05 22:33 | 47.55881 | 2.29296 | 28082 ft | 442 kts | 177° |
| 2026-05-05 22:34 | 47.52802 | 2.29495 | 28525 ft | 441 kts | 177° |
| 2026-05-05 22:34 | 47.49750 | 2.29691 | 29016 ft | 439 kts | 177° |
| 2026-05-05 22:34 | 47.46697 | 2.29884 | 29493 ft | 437 kts | 177° |
| 2026-05-05 22:34 | 47.43706 | 2.30069 | 29960 ft | 435 kts | 178° |
| 2026-05-05 22:35 | 47.40680 | 2.30257 | 30374 ft | 433 kts | 178° |
| 2026-05-05 22:35 | 47.37675 | 2.30447 | 30776 ft | 431 kts | 178° |
| 2026-05-05 22:35 | 47.34687 | 2.30634 | 31185 ft | 429 kts | 178° |
| 2026-05-05 22:35 | 47.31701 | 2.30817 | 31586 ft | 427 kts | 178° |
| 2026-05-05 22:36 | 47.28737 | 2.30999 | 31990 ft | 425 kts | 178° |
| 2026-05-05 22:36 | 47.25788 | 2.31182 | 32384 ft | 423 kts | 178° |
| 2026-05-05 22:36 | 47.22848 | 2.31362 | 32768 ft | 422 kts | 178° |
| 2026-05-05 22:36 | 47.19918 | 2.31542 | 33159 ft | 420 kts | 178° |
| 2026-05-05 22:37 | 47.17008 | 2.31723 | 33537 ft | 418 kts | 179° |
| 2026-05-05 22:37 | 47.14145 | 2.31898 | 33885 ft | 417 kts | 179° |
| 2026-05-05 22:37 | 47.11251 | 2.32073 | 34153 ft | 416 kts | 179° |
| 2026-05-05 22:37 | 47.08354 | 2.32251 | 34375 ft | 417 kts | 179° |
| 2026-05-05 22:38 | 47.05450 | 2.32431 | 34591 ft | 417 kts | 179° |
| 2026-05-05 22:38 | 47.02535 | 2.32614 | 34790 ft | 418 kts | 179° |
| 2026-05-05 22:38 | 46.99615 | 2.32797 | 34874 ft | 421 kts | 179° |
| 2026-05-05 22:39 | 46.93752 | 2.33163 | 34893 ft | 421 kts | 179° |
| 2026-05-05 22:39 | 46.87933 | 2.33517 | 34888 ft | 421 kts | 179° |
| 2026-05-05 22:40 | 46.82156 | 2.34869 | 34901 ft | 424 kts | 163° |
| 2026-05-05 22:40 | 46.76650 | 2.38020 | 34890 ft | 425 kts | 160° |
| 2026-05-05 22:41 | 46.71151 | 2.41202 | 34901 ft | 425 kts | 161° |
| 2026-05-05 22:41 | 46.65646 | 2.44372 | 34899 ft | 425 kts | 161° |
| 2026-05-05 22:42 | 46.60146 | 2.47539 | 34908 ft | 425 kts | 161° |
| 2026-05-05 22:42 | 46.54642 | 2.50699 | 34912 ft | 424 kts | 161° |
| 2026-05-05 22:43 | 46.49184 | 2.53823 | 34918 ft | 424 kts | 161° |
| 2026-05-05 22:43 | 46.43697 | 2.56962 | 34918 ft | 424 kts | 161° |
| 2026-05-05 22:44 | 46.38217 | 2.60086 | 34920 ft | 423 kts | 161° |
| 2026-05-05 22:44 | 46.32740 | 2.63200 | 34923 ft | 423 kts | 161° |
| 2026-05-05 22:45 | 46.27270 | 2.66309 | 34921 ft | 422 kts | 161° |
| 2026-05-05 22:45 | 46.21804 | 2.69409 | 34927 ft | 421 kts | 161° |
| 2026-05-05 22:46 | 46.16371 | 2.72482 | 34923 ft | 421 kts | 161° |
| 2026-05-05 22:46 | 46.10917 | 2.75563 | 34924 ft | 420 kts | 161° |
| 2026-05-05 22:47 | 46.05474 | 2.78637 | 34924 ft | 420 kts | 161° |
| 2026-05-05 22:47 | 46.00029 | 2.81694 | 34931 ft | 419 kts | 161° |
| 2026-05-05 22:48 | 45.94573 | 2.84653 | 34937 ft | 419 kts | 162° |
| 2026-05-05 22:48 | 45.89130 | 2.87492 | 34934 ft | 419 kts | 163° |
| 2026-05-05 22:49 | 45.83656 | 2.90340 | 34928 ft | 419 kts | 162° |
| 2026-05-05 22:49 | 45.78183 | 2.93210 | 34926 ft | 419 kts | 162° |
| 2026-05-05 22:50 | 45.72551 | 2.95146 | 34920 ft | 414 kts | 178° |
| 2026-05-05 22:50 | 45.66803 | 2.95075 | 34922 ft | 413 kts | 182° |
| 2026-05-05 22:51 | 45.61083 | 2.94912 | 34920 ft | 414 kts | 182° |
| 2026-05-05 22:51 | 45.55325 | 2.94768 | 34926 ft | 414 kts | 182° |
| 2026-05-05 22:52 | 45.49567 | 2.94616 | 34927 ft | 414 kts | 182° |
| 2026-05-05 22:52 | 45.43813 | 2.94459 | 34938 ft | 414 kts | 182° |
| 2026-05-05 22:53 | 45.38057 | 2.94305 | 34942 ft | 413 kts | 182° |
| 2026-05-05 22:53 | 45.32305 | 2.94158 | 34948 ft | 413 kts | 182° |
| 2026-05-05 22:54 | 45.26556 | 2.94017 | 34950 ft | 413 kts | 182° |
| 2026-05-05 22:54 | 45.20814 | 2.93866 | 34952 ft | 413 kts | 182° |
| 2026-05-05 22:55 | 45.15065 | 2.93706 | 34944 ft | 413 kts | 182° |
| 2026-05-05 22:55 | 45.09313 | 2.93553 | 34948 ft | 413 kts | 182° |
| 2026-05-05 22:56 | 45.03593 | 2.93412 | 34948 ft | 414 kts | 182° |
| 2026-05-05 22:56 | 44.97834 | 2.93268 | 34952 ft | 414 kts | 182° |
| 2026-05-05 22:57 | 44.92063 | 2.93115 | 34952 ft | 414 kts | 182° |
| 2026-05-05 22:57 | 44.86298 | 2.92966 | 34961 ft | 415 kts | 182° |
| 2026-05-05 22:58 | 44.80524 | 2.92713 | 34966 ft | 414 kts | 184° |
| 2026-05-05 22:58 | 44.74763 | 2.92245 | 34968 ft | 415 kts | 185° |
| 2026-05-05 22:59 | 44.69002 | 2.91775 | 34963 ft | 415 kts | 185° |
| 2026-05-05 22:59 | 44.63235 | 2.91336 | 34965 ft | 415 kts | 185° |
| 2026-05-05 23:00 | 44.54576 | 2.90705 | 34967 ft | 416 kts | 185° |
| 2026-05-05 23:00 | 44.48839 | 2.90305 | 34963 ft | 416 kts | 185° |
| 2026-05-05 23:01 | 44.43048 | 2.89885 | 34965 ft | 416 kts | 185° |
| 2026-05-05 23:01 | 44.37261 | 2.89461 | 34956 ft | 417 kts | 185° |
| 2026-05-05 23:02 | 44.31468 | 2.89037 | 34965 ft | 417 kts | 185° |
| 2026-05-05 23:02 | 44.25660 | 2.88622 | 34986 ft | 417 kts | 185° |
| 2026-05-05 23:03 | 44.19894 | 2.88213 | 34982 ft | 418 kts | 185° |
| 2026-05-05 23:03 | 44.14708 | 2.87831 | 34983 ft | 418 kts | 185° |
| 2026-05-05 23:04 | 44.08885 | 2.87410 | 34983 ft | 419 kts | 185° |
| 2026-05-05 23:04 | 44.03060 | 2.87000 | 34985 ft | 419 kts | 185° |
| 2026-05-05 23:05 | 43.97264 | 2.86587 | 34983 ft | 420 kts | 185° |
| 2026-05-05 23:05 | 43.91419 | 2.86167 | 34987 ft | 421 kts | 185° |
| 2026-05-05 23:06 | 43.85554 | 2.85751 | 34979 ft | 421 kts | 185° |
| 2026-05-05 23:06 | 43.79703 | 2.85337 | 34983 ft | 421 kts | 185° |
| 2026-05-05 23:07 | 43.73831 | 2.85116 | 34981 ft | 422 kts | 182° |
| 2026-05-05 23:07 | 43.67988 | 2.85267 | 34979 ft | 423 kts | 181° |
| 2026-05-05 23:08 | 43.62105 | 2.85454 | 34972 ft | 423 kts | 181° |
| 2026-05-05 23:08 | 43.56211 | 2.85570 | 34969 ft | 423 kts | 182° |
| 2026-05-05 23:09 | 43.51317 | 2.85632 | 34963 ft | 423 kts | 182° |
| 2026-05-05 23:09 | 43.45430 | 2.85705 | 34967 ft | 423 kts | 182° |
| 2026-05-05 23:10 | 43.39538 | 2.85786 | 34965 ft | 424 kts | 182° |
| 2026-05-05 23:10 | 43.33635 | 2.85867 | 34964 ft | 424 kts | 182° |
| 2026-05-05 23:11 | 43.27720 | 2.85955 | 34960 ft | 424 kts | 182° |
| 2026-05-05 23:11 | 43.21819 | 2.86040 | 34964 ft | 424 kts | 183° |
| 2026-05-05 23:12 | 43.15943 | 2.86125 | 34964 ft | 425 kts | 183° |
| 2026-05-05 23:12 | 43.10028 | 2.86208 | 34969 ft | 425 kts | 183° |
| 2026-05-05 23:13 | 43.04113 | 2.86297 | 34965 ft | 425 kts | 183° |
| 2026-05-05 23:13 | 42.98196 | 2.86382 | 34965 ft | 425 kts | 183° |
| 2026-05-05 23:14 | 42.92274 | 2.86468 | 34736 ft | 425 kts | 183° |
| 2026-05-05 23:14 | 42.89305 | 2.86510 | 34065 ft | 428 kts | 183° |
| 2026-05-05 23:14 | 42.86343 | 2.86550 | 33247 ft | 431 kts | 183° |
| 2026-05-05 23:15 | 42.83347 | 2.86591 | 32512 ft | 432 kts | 183° |
| 2026-05-05 23:15 | 42.80332 | 2.86635 | 31752 ft | 433 kts | 183° |
| 2026-05-05 23:15 | 42.77311 | 2.86680 | 30963 ft | 435 kts | 183° |
| 2026-05-05 23:15 | 42.74272 | 2.86626 | 30045 ft | 437 kts | 188° |
| 2026-05-05 23:16 | 42.71247 | 2.86261 | 29463 ft | 432 kts | 188° |
| 2026-05-05 23:16 | 42.68273 | 2.85907 | 28882 ft | 427 kts | 188° |
| 2026-05-05 23:16 | 42.65326 | 2.85561 | 28310 ft | 423 kts | 188° |
| 2026-05-05 23:16 | 42.62405 | 2.85223 | 27742 ft | 418 kts | 188° |
| 2026-05-05 23:17 | 42.59521 | 2.84892 | 27176 ft | 414 kts | 188° |
| 2026-05-05 23:17 | 42.56668 | 2.84561 | 26616 ft | 410 kts | 188° |
| 2026-05-05 23:17 | 42.53842 | 2.84232 | 26067 ft | 406 kts | 188° |
| 2026-05-05 23:17 | 42.51039 | 2.83905 | 25520 ft | 402 kts | 188° |
| 2026-05-05 23:18 | 42.48264 | 2.83580 | 25032 ft | 397 kts | 188° |
| 2026-05-05 23:18 | 42.45561 | 2.83261 | 24855 ft | 384 kts | 189° |
| 2026-05-05 23:18 | 42.42991 | 2.82702 | 24511 ft | 376 kts | 193° |
| 2026-05-05 23:18 | 42.40436 | 2.82073 | 24278 ft | 372 kts | 194° |
| 2026-05-05 23:19 | 42.37898 | 2.81441 | 24043 ft | 370 kts | 194° |
| 2026-05-05 23:19 | 42.35370 | 2.80811 | 23809 ft | 369 kts | 194° |
| 2026-05-05 23:19 | 42.32842 | 2.80184 | 23566 ft | 368 kts | 194° |
| 2026-05-05 23:19 | 42.30326 | 2.79565 | 23320 ft | 367 kts | 194° |
| 2026-05-05 23:20 | 42.27814 | 2.78948 | 23036 ft | 366 kts | 194° |
| 2026-05-05 23:20 | 42.25314 | 2.78332 | 22759 ft | 365 kts | 194° |
| 2026-05-05 23:20 | 42.22817 | 2.77719 | 22485 ft | 364 kts | 194° |
| 2026-05-05 23:20 | 42.20332 | 2.77111 | 22222 ft | 362 kts | 194° |
| 2026-05-05 23:21 | 42.17853 | 2.76507 | 21956 ft | 361 kts | 194° |
| 2026-05-05 23:21 | 42.15427 | 2.75702 | 21690 ft | 356 kts | 203° |
| 2026-05-05 23:21 | 42.13208 | 2.74279 | 21428 ft | 352 kts | 214° |
| 2026-05-05 23:21 | 42.11270 | 2.72295 | 21174 ft | 349 kts | 225° |
| 2026-05-05 23:22 | 42.09630 | 2.69901 | 20916 ft | 347 kts | 230° |
| 2026-05-05 23:22 | 42.08055 | 2.67491 | 20666 ft | 347 kts | 229° |
| 2026-05-05 23:22 | 42.06438 | 2.65028 | 20408 ft | 346 kts | 229° |
| 2026-05-05 23:22 | 42.04840 | 2.62604 | 20157 ft | 345 kts | 229° |
| 2026-05-05 23:23 | 42.03271 | 2.60226 | 19917 ft | 345 kts | 229° |
| 2026-05-05 23:23 | 42.01683 | 2.57819 | 19672 ft | 344 kts | 229° |
| 2026-05-05 23:23 | 42.00096 | 2.55417 | 19426 ft | 343 kts | 229° |
| 2026-05-05 23:23 | 41.98513 | 2.53020 | 19185 ft | 342 kts | 229° |
| 2026-05-05 23:24 | 41.96930 | 2.50623 | 18945 ft | 346 kts | 230° |
| 2026-05-05 23:24 | 41.95317 | 2.48181 | 18703 ft | 347 kts | 230° |
| 2026-05-05 23:24 | 41.93728 | 2.45779 | 18462 ft | 342 kts | 230° |
| 2026-05-05 23:24 | 41.92150 | 2.43394 | 18223 ft | 341 kts | 230° |
| 2026-05-05 23:25 | 41.90574 | 2.41014 | 17956 ft | 340 kts | 230° |
| 2026-05-05 23:25 | 41.89001 | 2.38644 | 17680 ft | 339 kts | 230° |
| 2026-05-05 23:25 | 41.87435 | 2.36284 | 17415 ft | 338 kts | 229° |
| 2026-05-05 23:25 | 41.85872 | 2.33932 | 17149 ft | 337 kts | 230° |
| 2026-05-05 23:26 | 41.84316 | 2.31592 | 16889 ft | 336 kts | 230° |
| 2026-05-05 23:26 | 41.82758 | 2.29248 | 16624 ft | 335 kts | 230° |
| 2026-05-05 23:26 | 41.81212 | 2.26923 | 16366 ft | 334 kts | 230° |
| 2026-05-05 23:26 | 41.79684 | 2.24633 | 16114 ft | 333 kts | 228° |
| 2026-05-05 23:27 | 41.77990 | 2.22517 | 15858 ft | 333 kts | 220° |
| 2026-05-05 23:27 | 41.76082 | 2.20766 | 15601 ft | 334 kts | 212° |
| 2026-05-05 23:27 | 41.73982 | 2.19412 | 15421 ft | 336 kts | 204° |
| 2026-05-05 23:27 | 41.71753 | 2.18468 | 15248 ft | 337 kts | 198° |
| 2026-05-05 23:28 | 41.69495 | 2.17624 | 15073 ft | 336 kts | 199° |
| 2026-05-05 23:28 | 41.67250 | 2.16772 | 14902 ft | 336 kts | 199° |
| 2026-05-05 23:28 | 41.65007 | 2.15914 | 14726 ft | 335 kts | 199° |
| 2026-05-05 23:28 | 41.62767 | 2.15059 | 14581 ft | 334 kts | 199° |
| 2026-05-05 23:29 | 41.60536 | 2.14212 | 14456 ft | 334 kts | 199° |
| 2026-05-05 23:29 | 41.58305 | 2.13367 | 14335 ft | 333 kts | 199° |
| 2026-05-05 23:29 | 41.56115 | 2.12376 | 14213 ft | 331 kts | 207° |
| 2026-05-05 23:29 | 41.54116 | 2.10900 | 14095 ft | 327 kts | 217° |
| 2026-05-05 23:30 | 41.52370 | 2.08972 | 13975 ft | 325 kts | 227° |
| 2026-05-05 23:30 | 41.50927 | 2.06668 | 13853 ft | 323 kts | 237° |
| 2026-05-05 23:30 | 41.49822 | 2.04067 | 13736 ft | 322 kts | 246° |
| 2026-05-05 23:30 | 41.48962 | 2.01314 | 13596 ft | 321 kts | 248° |
| 2026-05-05 23:31 | 41.48105 | 1.98565 | 13470 ft | 321 kts | 248° |
| 2026-05-05 23:31 | 41.47242 | 1.95814 | 13345 ft | 320 kts | 248° |
| 2026-05-05 23:31 | 41.46381 | 1.93082 | 13200 ft | 319 kts | 248° |
| 2026-05-05 23:31 | 41.45523 | 1.90352 | 13076 ft | 319 kts | 248° |
| 2026-05-05 23:32 | 41.44668 | 1.87631 | 12941 ft | 318 kts | 248° |
| 2026-05-05 23:32 | 41.43824 | 1.84945 | 12812 ft | 318 kts | 248° |
| 2026-05-05 23:32 | 41.42970 | 1.82230 | 12678 ft | 317 kts | 248° |
| 2026-05-05 23:32 | 41.42115 | 1.79527 | 12552 ft | 317 kts | 248° |
| 2026-05-05 23:33 | 41.41113 | 1.76920 | 12290 ft | 317 kts | 235° |
| 2026-05-05 23:33 | 41.39512 | 1.74905 | 11732 ft | 321 kts | 213° |
| 2026-05-05 23:33 | 41.37430 | 1.73827 | 11232 ft | 325 kts | 192° |
| 2026-05-05 23:33 | 41.35163 | 1.73644 | 10737 ft | 327 kts | 184° |
| 2026-05-05 23:34 | 41.32912 | 1.73589 | 10524 ft | 317 kts | 184° |
| 2026-05-05 23:34 | 41.30748 | 1.73545 | 10397 ft | 306 kts | 184° |
| 2026-05-05 23:34 | 41.28663 | 1.73502 | 10144 ft | 294 kts | 184° |
| 2026-05-05 23:34 | 41.26643 | 1.73456 | 9809 ft | 285 kts | 185° |
| 2026-05-05 23:35 | 41.24653 | 1.73402 | 9274 ft | 288 kts | 185° |
| 2026-05-05 23:35 | 41.22649 | 1.73344 | 8674 ft | 288 kts | 184° |
| 2026-05-05 23:35 | 41.20654 | 1.73289 | 8079 ft | 285 kts | 184° |
| 2026-05-05 23:35 | 41.18694 | 1.73239 | 7658 ft | 275 kts | 184° |
| 2026-05-05 23:36 | 41.16850 | 1.73201 | 7483 ft | 257 kts | 184° |
| 2026-05-05 23:36 | 41.15136 | 1.73572 | 7320 ft | 251 kts | 159° |
| 2026-05-05 23:36 | 41.13723 | 1.74941 | 7207 ft | 258 kts | 129° |
| 2026-05-05 23:36 | 41.12966 | 1.77074 | 7056 ft | 260 kts | 101° |
| 2026-05-05 23:37 | 41.12710 | 1.79444 | 6691 ft | 259 kts | 97° |
| 2026-05-05 23:37 | 41.12492 | 1.81803 | 6335 ft | 257 kts | 96° |
| 2026-05-05 23:37 | 41.12282 | 1.84143 | 5990 ft | 255 kts | 96° |
| 2026-05-05 23:37 | 41.12072 | 1.86470 | 5673 ft | 253 kts | 96° |
| 2026-05-05 23:38 | 41.11861 | 1.88782 | 5332 ft | 252 kts | 96° |
| 2026-05-05 23:38 | 41.11647 | 1.91084 | 4987 ft | 251 kts | 96° |
| 2026-05-05 23:38 | 41.11448 | 1.93374 | 4639 ft | 249 kts | 95° |
| 2026-05-05 23:38 | 41.11274 | 1.95620 | 4287 ft | 246 kts | 95° |
| 2026-05-05 23:39 | 41.11158 | 1.97894 | 3940 ft | 242 kts | 84° |
| 2026-05-05 23:39 | 41.11700 | 1.99917 | 3607 ft | 228 kts | 50° |
| 2026-05-05 23:39 | 41.12846 | 2.01208 | 3312 ft | 209 kts | 21° |
| 2026-05-05 23:39 | 41.14161 | 2.01840 | 3050 ft | 202 kts | 14° |
| 2026-05-05 23:40 | 41.15487 | 2.02438 | 2787 ft | 200 kts | 15° |
| 2026-05-05 23:40 | 41.16796 | 2.03031 | 2525 ft | 196 kts | 14° |
| 2026-05-05 23:40 | 41.18039 | 2.03598 | 2274 ft | 181 kts | 14° |
| 2026-05-05 23:40 | 41.19205 | 2.04128 | 2024 ft | 174 kts | 14° |
| 2026-05-05 23:41 | 41.20342 | 2.04643 | 1795 ft | 172 kts | 14° |
| 2026-05-05 23:41 | 41.21458 | 2.05150 | 1576 ft | 168 kts | 15° |
| 2026-05-05 23:41 | 41.22552 | 2.05648 | 1342 ft | 166 kts | 14° |
| 2026-05-05 23:41 | 41.23647 | 2.06146 | 1124 ft | 166 kts | 15° |
| 2026-05-05 23:42 | 41.24700 | 2.06626 | 902 ft | 156 kts | 16° |
| 2026-05-05 23:42 | 41.25712 | 2.07084 | 685 ft | 148 kts | 18° |
| 2026-05-05 23:42 | 41.26675 | 2.07531 | 469 ft | 143 kts | 18° |
| 2026-05-05 23:42 | 41.27634 | 2.07961 | 283 ft | 145 kts | 18° |
| 2026-05-05 23:43 | 41.28573 | 2.08391 | 100 ft | 141 kts | 19° |
| 2026-05-05 23:43 | 41.29439 | 2.08785 | 19 ft | 115 kts | 19° |
| 2026-05-05 23:43 | 41.30034 | 2.09052 | 18 ft | 66 kts | 19° |
| 2026-05-05 23:43 | 41.30322 | 2.09187 | 18 ft | 32 kts | 19° |
| 2026-05-05 23:44 | 41.30501 | 2.09270 | 21 ft | 23 kts | 19° |
| 2026-05-05 23:44 | 41.30603 | 2.09249 | 20 ft | 16 kts | 320° |
| 2026-05-05 23:44 | 41.30681 | 2.09141 | 18 ft | 14 kts | 283° |
| 2026-05-05 23:44 | 41.30640 | 2.09070 | 18 ft | 11 kts | 203° |
| 2026-05-05 23:45 | 41.30565 | 2.09034 | 18 ft | 12 kts | 198° |
| 2026-05-05 23:45 | 41.30479 | 2.08995 | 19 ft | 14 kts | 199° |
| 2026-05-05 23:45 | 41.30401 | 2.08935 | 18 ft | 13 kts | 234° |
| 2026-05-05 23:45 | 41.30337 | 2.08910 | 18 ft | 10 kts | 178° |
| 2026-05-05 23:46 | 41.30296 | 2.08843 | 18 ft | 10 kts | 246° |
| 2026-05-05 23:46 | 41.30264 | 2.08746 | 21 ft | 15 kts | 245° |
| 2026-05-05 23:46 | 41.30215 | 2.08605 | 19 ft | 17 kts | 245° |
| 2026-05-05 23:46 | 41.30165 | 2.08457 | 20 ft | 18 kts | 245° |
| 2026-05-05 23:47 | 41.30112 | 2.08304 | 19 ft | 19 kts | 245° |
| 2026-05-05 23:47 | 41.30056 | 2.08142 | 19 ft | 20 kts | 246° |
| 2026-05-05 23:47 | 41.29997 | 2.08037 | 18 ft | 12 kts | 200° |
| 2026-05-05 23:47 | 41.29915 | 2.08059 | 19 ft | 13 kts | 158° |
| 2026-05-05 23:48 | 41.29830 | 2.08107 | 19 ft | 14 kts | 156° |
| 2026-05-05 23:48 | 41.29739 | 2.08152 | 18 ft | 15 kts | 158° |
| 2026-05-05 23:48 | 41.29633 | 2.08215 | 18 ft | 17 kts | 155° |
| 2026-05-05 23:48 | 41.29516 | 2.08288 | 18 ft | 19 kts | 154° |
| 2026-05-05 23:49 | 41.29406 | 2.08348 | 18 ft | 13 kts | 174° |
| 2026-05-05 23:49 | 41.29352 | 2.08272 | 19 ft | 13 kts | 245° |
| 2026-05-05 23:49 | 41.29307 | 2.08213 | 19 ft | 9 kts | 198° |
| 2026-05-05 23:49 | 41.29257 | 2.08208 | 19 ft | 1 kts | 181° |
| 2026-05-05 23:50 | 41.29252 | 2.08208 | 19 ft | 0 kts | 181° |
| 2026-05-05 23:50 | 41.29248 | 2.08208 | 19 ft | 0 kts | 181° |
| 2026-05-05 23:50 | 41.29245 | 2.08208 | 19 ft | 0 kts | 181° |